Time;durP1;ratioP1;P1;durP2;ratioP2;P2;SDS_P1;SDS_P2;PMS_P1;PMS_P2;Temp;Humidity;BMP_temperature;BMP_pressure;BME280_temperature;BME280_humidity;BME280_pressure;Samples;Min_cycle;Max_cycle;Signal;HPM_P1;HPM_P2
2022/10/10 00:01:24;;;;;;;7.40;6.80;;;11.00;99.90;;;;;;6088822;23;20191;-87
2022/10/10 00:03:53;;;;;;;7.05;6.45;;;11.00;99.90;;;;;;6080648;23;20243;-88
2022/10/10 00:06:21;;;;;;;7.63;6.78;;;11.00;99.90;;;;;;6045727;23;20200;-87
2022/10/10 00:08:49;;;;;;;8.25;7.00;;;10.90;99.90;;;;;;6103902;23;20199;-88
2022/10/10 00:11:20;;;;;;;7.53;6.82;;;10.90;99.90;;;;;;6090590;23;20533;-87
2022/10/10 00:13:48;;;;;;;7.32;6.63;;;10.90;99.90;;;;;;6085847;23;20218;-87
2022/10/10 00:16:20;;;;;;;7.60;6.80;;;11.00;99.90;;;;;;6093213;23;20265;-89
2022/10/10 00:18:48;;;;;;;8.00;7.20;;;10.80;99.90;;;;;;6083246;23;20206;-89
2022/10/10 00:21:17;;;;;;;7.60;6.90;;;10.80;99.90;;;;;;6100054;23;20218;-87
2022/10/10 00:23:44;;;;;;;8.05;6.95;;;10.80;99.90;;;;;;6044883;23;20196;-88
2022/10/10 00:26:12;;;;;;;7.95;7.22;;;10.80;99.90;;;;;;6056316;23;20222;-88
2022/10/10 00:28:39;;;;;;;7.43;6.72;;;10.80;99.90;;;;;;6088430;23;20188;-88
2022/10/10 00:31:07;;;;;;;8.18;7.30;;;10.80;99.90;;;;;;6032327;23;20557;-88
2022/10/10 00:33:35;;;;;;;9.57;8.73;;;11.10;99.90;;;;;;6072910;23;20243;-88
2022/10/10 00:36:02;;;;;;;9.30;8.48;;;10.80;99.90;;;;;;6088320;23;20207;-87
2022/10/10 00:38:31;;;;;;;8.40;7.68;;;10.80;99.90;;;;;;6088506;23;20255;-88
2022/10/10 00:41:00;;;;;;;9.07;8.15;;;10.90;99.90;;;;;;6041447;23;20199;-88
2022/10/10 00:43:29;;;;;;;8.38;7.57;;;10.80;99.90;;;;;;6079348;23;20195;-88
2022/10/10 00:45:56;;;;;;;9.65;8.65;;;10.90;99.90;;;;;;6048417;23;20285;-88
2022/10/10 00:48:28;;;;;;;8.73;7.93;;;10.90;99.90;;;;;;6067228;23;20215;-88
2022/10/10 00:50:58;;;;;;;9.65;8.45;;;10.90;99.90;;;;;;6069247;23;20204;-89
2022/10/10 00:53:30;;;;;;;8.85;8.05;;;11.00;99.90;;;;;;6094608;23;20208;-88
2022/10/10 00:56:00;;;;;;;9.27;8.13;;;11.00;99.90;;;;;;6054349;23;20210;-89
2022/10/10 00:58:27;;;;;;;8.88;8.15;;;11.00;99.90;;;;;;6090352;23;20333;-88
2022/10/10 01:00:55;;;;;;;10.13;8.50;;;11.30;99.90;;;;;;6091612;23;20661;-89
2022/10/10 01:03:22;;;;;;;9.43;8.43;;;11.10;99.90;;;;;;6079430;23;20262;-89
2022/10/10 01:05:51;;;;;;;10.38;9.48;;;11.10;99.90;;;;;;6077001;23;20192;-89
2022/10/10 01:08:24;;;;;;;9.85;8.93;;;11.10;99.90;;;;;;6086932;23;20629;-89
2022/10/10 01:11:10;;;;;;;9.45;8.55;;;11.20;99.90;;;;;;6090906;23;20231;-89
2022/10/10 01:13:44;;;;;;;10.48;9.48;;;11.20;99.90;;;;;;6066256;23;20212;-89
2022/10/10 01:16:25;;;;;;;9.88;8.98;;;11.20;99.90;;;;;;6066493;23;20191;-89
2022/10/10 01:18:59;;;;;;;9.38;8.38;;;11.20;99.90;;;;;;6008958;23;20192;-88
2022/10/10 01:21:37;;;;;;;10.35;9.45;;;11.20;99.90;;;;;;6054719;23;20196;-88
2022/10/10 01:24:34;;;;;;;10.32;9.02;;;11.20;99.90;;;;;;6073968;23;20322;-88
2022/10/10 01:27:29;;;;;;;10.38;9.43;;;11.20;99.90;;;;;;6085471;23;20231;-89
2022/10/10 01:30:04;;;;;;;10.30;9.30;;;11.20;99.90;;;;;;6092041;23;20246;-88
2022/10/10 01:32:38;;;;;;;9.70;8.80;;;11.10;99.90;;;;;;6089421;23;20276;-89
2022/10/10 01:35:37;;;;;;;10.18;9.18;;;11.10;99.90;;;;;;6092945;23;20207;-89
2022/10/10 01:38:22;;;;;;;10.27;9.25;;;11.10;99.90;;;;;;6074532;23;20192;-88
2022/10/10 01:40:53;;;;;;;10.07;9.10;;;11.20;99.90;;;;;;6064982;23;20568;-89
2022/10/10 01:43:21;;;;;;;9.60;8.70;;;11.40;99.90;;;;;;6059287;23;20544;-88
2022/10/10 01:45:52;;;;;;;10.40;9.32;;;11.20;99.90;;;;;;6093437;23;20249;-88
2022/10/10 01:48:23;;;;;;;11.23;9.55;;;11.20;99.90;;;;;;6058497;23;20194;-89
2022/10/10 01:51:09;;;;;;;9.40;8.60;;;11.20;99.90;;;;;;6093435;23;20192;-88
2022/10/10 01:53:44;;;;;;;9.70;8.57;;;11.20;99.90;;;;;;6084942;23;20207;-89
2022/10/10 01:56:27;;;;;;;10.48;9.43;;;11.20;99.90;;;;;;6095162;23;20202;-88
2022/10/10 01:59:16;;;;;;;10.52;9.52;;;11.10;99.90;;;;;;6030203;23;20200;-89
2022/10/10 02:01:52;;;;;;;9.82;8.93;;;11.20;99.90;;;;;;6073668;23;20546;-89
2022/10/10 02:04:28;;;;;;;10.27;9.13;;;11.50;99.90;;;;;;6087039;23;20202;-89
2022/10/10 02:07:00;;;;;;;9.90;8.98;;;11.20;99.90;;;;;;6096241;23;20202;-87
2022/10/10 02:09:34;;;;;;;11.68;9.77;;;11.20;99.90;;;;;;6072435;23;20260;-88
2022/10/10 02:12:03;;;;;;;10.50;9.60;;;11.20;99.90;;;;;;6067228;23;20199;-89
2022/10/10 02:14:35;;;;;;;11.15;10.05;;;11.20;99.90;;;;;;6097639;23;20234;-89
2022/10/10 02:17:08;;;;;;;10.45;9.55;;;11.30;99.90;;;;;;6091921;23;20192;-89
2022/10/10 02:19:37;;;;;;;11.35;9.10;;;11.30;99.90;;;;;;6089675;23;20196;-89
2022/10/10 02:22:05;;;;;;;11.15;10.00;;;11.30;99.90;;;;;;6091802;23;20196;-89
2022/10/10 02:24:33;;;;;;;11.10;9.10;;;11.30;99.90;;;;;;6096765;23;20191;-90
2022/10/10 02:27:03;;;;;;;10.88;9.88;;;11.30;99.90;;;;;;6074796;23;20282;-89
2022/10/10 02:29:33;;;;;;;9.55;8.55;;;11.30;99.90;;;;;;6069024;23;20188;-89
2022/10/10 02:32:09;;;;;;;9.73;8.75;;;11.30;99.90;;;;;;6087964;23;20188;-89
2022/10/10 02:34:45;;;;;;;9.20;8.30;;;11.30;99.90;;;;;;6061448;23;20621;-89
2022/10/10 02:37:15;;;;;;;10.55;8.25;;;11.50;99.90;;;;;;6092378;23;20604;-89
2022/10/10 02:39:45;;;;;;;9.77;8.32;;;11.40;99.90;;;;;;6106805;23;20191;-89
2022/10/10 02:42:15;;;;;;;8.02;7.35;;;11.30;99.90;;;;;;6077858;23;20192;-89
2022/10/10 02:44:44;;;;;;;9.65;8.65;;;11.20;99.90;;;;;;6034921;23;20199;-88
2022/10/10 02:47:13;;;;;;;9.45;8.65;;;11.20;99.90;;;;;;6056238;23;20270;-88
2022/10/10 02:49:41;;;;;;;9.77;8.75;;;11.20;99.90;;;;;;6052512;23;20196;-89
2022/10/10 02:52:10;;;;;;;9.32;8.52;;;11.20;99.90;;;;;;6086283;23;20633;-89
2022/10/10 02:54:37;;;;;;;10.80;9.20;;;11.20;99.90;;;;;;6088804;23;20214;-89
2022/10/10 02:57:05;;;;;;;9.10;8.40;;;11.10;99.90;;;;;;6058235;23;21141;-88
2022/10/10 02:59:32;;;;;;;9.50;8.35;;;11.10;99.90;;;;;;6094343;23;20199;-90
2022/10/10 03:01:59;;;;;;;9.65;8.85;;;11.10;99.90;;;;;;6118107;23;20184;-89
2022/10/10 03:04:28;;;;;;;10.52;9.45;;;11.00;99.90;;;;;;6119643;23;20172;-89
2022/10/10 03:06:56;;;;;;;12.45;8.30;;;11.10;99.90;;;;;;6118093;23;20191;-89
2022/10/10 03:09:24;;;;;;;9.25;8.43;;;11.10;99.90;;;;;;6034448;23;20196;-89
2022/10/10 03:11:51;;;;;;;9.82;8.52;;;11.10;99.90;;;;;;6083639;23;20707;-89
2022/10/10 03:14:19;;;;;;;9.85;8.73;;;11.00;99.90;;;;;;6078496;23;20217;-87
2022/10/10 03:16:46;;;;;;;8.77;7.60;;;11.00;99.90;;;;;;6065722;23;20242;-89
2022/10/10 03:19:14;;;;;;;10.63;9.30;;;11.20;99.90;;;;;;6007355;23;20245;-88
2022/10/10 03:21:44;;;;;;;12.25;8.57;;;11.00;99.90;;;;;;6055251;23;20207;-89
2022/10/10 03:24:11;;;;;;;8.43;7.63;;;11.00;99.90;;;;;;6081148;23;20188;-90
2022/10/10 03:26:39;;;;;;;9.57;8.57;;;11.00;99.90;;;;;;6065992;23;20187;-89
2022/10/10 03:29:07;;;;;;;8.70;7.80;;;11.00;99.90;;;;;;6090981;23;20220;-89
2022/10/10 03:31:34;;;;;;;9.77;8.82;;;11.00;99.90;;;;;;6090848;23;20702;-89
2022/10/10 03:34:02;;;;;;;10.80;9.75;;;11.20;99.90;;;;;;6092829;23;20749;-88
2022/10/10 03:36:30;;;;;;;10.00;9.00;;;11.00;99.90;;;;;;6101743;23;20215;-88
2022/10/10 03:38:58;;;;;;;10.13;9.20;;;11.20;99.90;;;;;;6078736;23;20199;-89
2022/10/10 03:41:25;;;;;;;10.02;8.98;;;10.90;99.90;;;;;;6091344;23;20211;-88
2022/10/10 03:43:53;;;;;;;11.45;9.38;;;10.90;99.90;;;;;;6102958;23;20187;-88
2022/10/10 03:46:20;;;;;;;9.10;8.30;;;10.90;99.90;;;;;;6092841;23;20251;-89
2022/10/10 03:48:49;;;;;;;10.23;8.38;;;10.90;99.90;;;;;;6083174;23;20192;-89
2022/10/10 03:51:16;;;;;;;10.32;9.38;;;10.90;99.90;;;;;;6057263;23;20661;-88
2022/10/10 03:53:44;;;;;;;8.85;7.90;;;10.80;99.90;;;;;;6062805;23;20199;-88
2022/10/10 03:56:13;;;;;;;9.98;8.88;;;10.80;99.90;;;;;;6064116;23;20662;-88
2022/10/10 03:58:40;;;;;;;9.70;8.90;;;11.20;99.90;;;;;;6092927;23;20188;-89
2022/10/10 04:01:08;;;;;;;8.98;8.18;;;10.80;99.90;;;;;;6065797;23;20560;-88
2022/10/10 04:03:36;;;;;;;10.48;9.48;;;10.80;99.90;;;;;;6090642;23;20192;-88
2022/10/10 04:06:03;;;;;;;8.80;8.00;;;10.80;99.90;;;;;;6063998;23;20549;-88
2022/10/10 04:08:30;;;;;;;9.02;7.93;;;10.80;99.90;;;;;;6056088;23;20204;-88
2022/10/10 04:10:58;;;;;;;10.10;9.10;;;10.90;99.90;;;;;;6070658;23;20200;-89
2022/10/10 04:13:27;;;;;;;9.85;8.85;;;10.80;99.90;;;;;;6070432;23;20234;-89
2022/10/10 04:15:56;;;;;;;10.50;9.52;;;10.80;99.90;;;;;;6038974;23;20440;-89
2022/10/10 04:18:24;;;;;;;8.85;8.05;;;10.80;99.90;;;;;;6112778;23;20554;-88
2022/10/10 04:20:51;;;;;;;8.65;7.97;;;10.80;99.90;;;;;;6067050;23;20240;-89
2022/10/10 04:23:19;;;;;;;9.77;8.88;;;10.80;99.90;;;;;;6078247;23;20196;-89
2022/10/10 04:25:51;;;;;;;9.10;8.30;;;10.80;99.90;;;;;;6087789;23;20200;-90
2022/10/10 04:28:19;;;;;;;9.40;8.15;;;10.80;99.90;;;;;;6093714;23;20241;-88
2022/10/10 04:30:48;;;;;;;9.15;8.25;;;10.80;99.90;;;;;;6067580;23;20218;-88
2022/10/10 04:33:15;;;;;;;9.27;8.38;;;10.80;99.90;;;;;;6096849;23;20965;-89
2022/10/10 04:35:43;;;;;;;9.35;8.65;;;10.80;99.90;;;;;;6103428;23;20298;-89
2022/10/10 04:38:10;;;;;;;10.45;9.35;;;10.70;99.90;;;;;;6100545;23;20217;-89
2022/10/10 04:40:38;;;;;;;9.50;8.57;;;10.70;99.90;;;;;;6062834;23;20200;-88
2022/10/10 04:43:06;;;;;;;10.18;9.20;;;10.70;99.90;;;;;;6068881;23;20192;-88
2022/10/10 04:45:38;;;;;;;9.40;8.50;;;10.70;99.90;;;;;;6095470;23;20210;-89
2022/10/10 04:48:07;;;;;;;10.27;9.38;;;11.00;99.90;;;;;;6094418;23;20249;-90
2022/10/10 04:50:34;;;;;;;9.90;8.98;;;10.60;99.90;;;;;;6092077;23;20196;-88
2022/10/10 04:53:02;;;;;;;11.48;8.75;;;10.60;99.90;;;;;;6083895;23;20194;-89
2022/10/10 04:55:29;;;;;;;9.98;8.90;;;10.60;99.90;;;;;;6067902;23;20245;-88
2022/10/10 04:57:57;;;;;;;10.30;9.40;;;10.60;99.90;;;;;;6111233;23;20207;-88
2022/10/10 05:00:25;;;;;;;9.70;8.68;;;10.60;99.90;;;;;;6057553;23;20541;-89
2022/10/10 05:02:52;;;;;;;9.85;8.95;;;10.80;99.90;;;;;;6088421;23;20219;-89
2022/10/10 05:05:24;;;;;;;12.07;9.05;;;10.60;99.90;;;;;;6091584;23;20314;-89
2022/10/10 05:07:51;;;;;;;9.90;8.90;;;10.60;99.90;;;;;;6061679;23;20672;-88
2022/10/10 05:10:19;;;;;;;10.35;9.35;;;10.60;99.90;;;;;;6104645;23;20191;-89
2022/10/10 05:12:46;;;;;;;10.00;8.80;;;10.70;99.90;;;;;;6080557;23;20188;-89
2022/10/10 05:15:13;;;;;;;9.90;9.00;;;10.60;99.90;;;;;;6092100;23;20235;-88
2022/10/10 05:17:40;;;;;;;10.48;9.60;;;10.60;99.90;;;;;;6090981;23;20331;-89
2022/10/10 05:20:08;;;;;;;10.25;9.13;;;10.60;99.90;;;;;;6065558;23;20188;-90
2022/10/10 05:22:37;;;;;;;10.02;8.82;;;10.50;99.90;;;;;;6053527;23;20188;-88
2022/10/10 05:25:05;;;;;;;10.80;9.70;;;10.80;99.90;;;;;;6098133;23;20207;-89
2022/10/10 05:27:33;;;;;;;10.93;9.95;;;10.50;99.90;;;;;;6038098;23;20275;-89
2022/10/10 05:30:00;;;;;;;10.85;9.75;;;10.60;99.90;;;;;;6086600;23;20640;-89
2022/10/10 05:32:28;;;;;;;11.77;10.55;;;10.80;99.90;;;;;;6091372;23;20252;-89
2022/10/10 05:34:55;;;;;;;11.57;10.38;;;10.70;99.90;;;;;;6093830;23;20215;-88
2022/10/10 05:37:23;;;;;;;10.20;9.30;;;10.70;99.90;;;;;;6076846;23;20244;-88
2022/10/10 05:42:28;;;;;;;9.70;8.77;;;10.70;99.90;;;;;;6079956;22;20216;-80
2022/10/10 05:44:56;;;;;;;9.48;8.68;;;10.70;99.90;;;;;;6089170;23;20211;-80
2022/10/10 05:47:24;;;;;;;9.20;8.40;;;10.70;99.90;;;;;;6089127;23;20287;-80
2022/10/10 05:49:52;;;;;;;10.40;8.77;;;10.80;99.90;;;;;;6094503;23;20204;-78
2022/10/10 05:52:19;;;;;;;10.55;9.45;;;10.90;99.90;;;;;;6097621;23;20191;-80
2022/10/10 05:54:47;;;;;;;10.73;9.65;;;11.00;99.90;;;;;;6119015;22;20967;-76
2022/10/10 05:57:14;;;;;;;9.20;8.40;;;10.80;99.90;;;;;;6079197;22;20216;-76
2022/10/10 05:59:43;;;;;;;10.40;9.30;;;10.80;99.90;;;;;;6073306;23;20224;-76
2022/10/10 06:02:12;;;;;;;10.93;9.05;;;10.80;99.90;;;;;;6084806;23;20203;-76
2022/10/10 06:04:42;;;;;;;9.32;8.38;;;10.80;99.90;;;;;;6082932;23;20262;-87
2022/10/10 06:07:10;;;;;;;10.30;9.15;;;10.70;99.90;;;;;;6079279;23;20767;-76
2022/10/10 06:09:37;;;;;;;12.52;10.38;;;10.70;99.90;;;;;;6058583;23;20192;-76
2022/10/10 06:12:04;;;;;;;9.88;8.88;;;10.80;99.90;;;;;;6073240;23;20216;-77
2022/10/10 06:14:32;;;;;;;10.23;9.32;;;10.80;99.90;;;;;;6079838;23;20209;-77
2022/10/10 06:17:00;;;;;;;10.48;9.43;;;10.90;99.90;;;;;;6083128;23;20219;-76
2022/10/10 06:19:27;;;;;;;10.35;9.35;;;11.00;99.90;;;;;;6078816;23;20189;-75
2022/10/10 06:21:55;;;;;;;11.00;9.95;;;11.00;99.90;;;;;;6087035;23;20702;-76
2022/10/10 06:24:22;;;;;;;9.60;8.60;;;11.20;99.90;;;;;;6088747;23;20226;-75
2022/10/10 06:26:50;;;;;;;9.88;8.43;;;11.50;99.90;;;;;;6085084;23;20271;-76
2022/10/10 06:29:19;;;;;;;7.90;7.22;;;11.80;99.90;;;;;;6064710;23;20185;-81
2022/10/10 06:31:47;;;;;;;7.90;7.20;;;12.10;99.90;;;;;;6058186;23;20258;-85
2022/10/10 06:34:15;;;;;;;7.70;6.90;;;12.50;99.90;;;;;;6074511;23;20448;-76
2022/10/10 06:36:43;;;;;;;7.53;6.83;;;12.90;99.90;;;;;;6078910;23;20867;-76
2022/10/10 06:39:10;;;;;;;7.67;6.97;;;13.20;99.90;;;;;;6087579;23;20507;-77
2022/10/10 06:41:37;;;;;;;7.43;6.83;;;13.60;99.90;;;;;;6080632;23;20449;-77
2022/10/10 06:44:04;;;;;;;8.80;7.50;;;13.70;99.90;;;;;;6035403;23;20910;-76
2022/10/10 06:46:33;;;;;;;7.67;6.97;;;13.60;99.90;;;;;;6074092;23;20521;-76
2022/10/10 06:49:00;;;;;;;7.90;7.10;;;13.40;99.90;;;;;;6034633;23;20484;-73
2022/10/10 06:51:28;;;;;;;7.83;7.07;;;13.50;99.90;;;;;;6087023;23;20483;-76
2022/10/10 06:53:57;;;;;;;8.20;7.40;;;13.30;99.90;;;;;;6044444;23;20488;-76
2022/10/10 06:56:26;;;;;;;8.00;7.30;;;13.10;99.90;;;;;;6079087;23;20483;-76
2022/10/10 06:58:54;;;;;;;9.67;7.67;;;12.90;99.90;;;;;;6080652;23;21233;-77
2022/10/10 07:01:23;;;;;;;9.30;8.33;;;12.90;99.90;;;;;;6082698;23;20516;-76
2022/10/10 07:03:50;;;;;;;7.95;7.20;;;12.70;99.90;;;;;;6088931;23;20438;-76
2022/10/10 07:08:54;;;;;;;9.13;8.27;;;12.50;99.90;;;;;;5716029;23;20208;-77
2022/10/10 07:11:23;;;;;;;8.27;7.33;;;12.50;99.90;;;;;;6085846;23;20445;-75
2022/10/10 07:13:52;;;;;;;7.30;6.60;;;12.80;99.90;;;;;;6086657;23;20435;-76
2022/10/10 07:16:19;;;;;;;7.00;6.30;;;13.40;99.90;;;;;;6062072;23;20749;-76
2022/10/10 07:18:48;;;;;;;6.80;6.27;;;13.90;99.90;;;;;;6081838;23;20438;-77
2022/10/10 07:21:15;;;;;;;6.97;6.37;;;14.30;99.90;;;;;;6087115;23;21846;-77
2022/10/10 07:23:42;;;;;;;6.90;6.40;;;14.50;99.90;;;;;;6085767;23;20446;-77
2022/10/10 07:26:19;;;;;;;6.97;6.37;;;14.50;99.90;;;;;;6078579;23;20431;-76
2022/10/10 07:28:50;;;;;;;7.57;7.00;;;14.20;99.90;;;;;;6080312;23;20442;-76
2022/10/10 07:31:17;;;;;;;7.33;6.70;;;14.00;99.90;;;;;;6057983;23;20795;-75
2022/10/10 07:33:46;;;;;;;8.03;7.40;;;13.80;99.90;;;;;;6080474;23;20435;-75
2022/10/10 07:36:13;;;;;;;10.27;7.80;;;13.70;99.90;;;;;;6083670;23;20461;-75
2022/10/10 07:38:41;;;;;;;9.67;7.63;;;13.60;99.90;;;;;;6081468;23;20445;-76
2022/10/10 07:41:09;;;;;;;8.00;7.20;;;13.50;99.90;;;;;;6081670;23;20532;-76
2022/10/10 07:43:39;;;;;;;7.37;6.70;;;13.50;99.90;;;;;;6053568;23;20467;-76
2022/10/10 07:46:13;;;;;;;7.40;6.80;;;13.40;99.90;;;;;;6085882;23;20439;-76
2022/10/10 07:48:40;;;;;;;10.10;8.73;;;13.40;99.90;;;;;;6086665;23;20437;-76
2022/10/10 07:51:08;;;;;;;8.50;7.20;;;13.40;99.90;;;;;;6084805;23;20515;-77
2022/10/10 07:53:35;;;;;;;8.27;7.07;;;13.30;99.90;;;;;;6082705;23;22351;-77
2022/10/10 07:56:04;;;;;;;8.30;7.50;;;13.40;99.90;;;;;;6083209;23;20498;-77
2022/10/10 07:58:33;;;;;;;7.60;6.90;;;13.70;99.90;;;;;;6055104;23;20456;-77
2022/10/10 08:03:30;;;;;;;8.60;7.77;;;14.00;99.90;;;;;;6047377;23;20477;-76
2022/10/10 08:05:57;;;;;;;8.27;7.37;;;14.20;99.90;;;;;;6050585;23;20427;-77
2022/10/10 08:08:24;;;;;;;8.73;7.73;;;14.30;99.90;;;;;;6049754;23;20842;-76
2022/10/10 08:10:51;;;;;;;9.40;7.77;;;14.30;99.90;;;;;;6048083;23;20470;-77
2022/10/10 08:15:51;;;;;;;7.60;6.87;;;14.20;99.90;;;;;;6048514;23;20454;-77
2022/10/10 08:18:19;;;;;;;11.47;8.30;;;14.30;99.90;;;;;;6050009;23;20530;-76
2022/10/10 08:20:58;;;;;;;9.00;7.30;;;14.30;99.90;;;;;;6057834;23;20985;-76
2022/10/10 08:23:26;;;;;;;8.43;7.53;;;14.40;99.90;;;;;;6052352;23;20455;-75
2022/10/10 08:25:53;;;;;;;9.00;8.10;;;14.30;99.90;;;;;;6057917;23;20534;-76
2022/10/10 08:28:20;;;;;;;8.80;7.90;;;14.40;99.90;;;;;;6046182;23;20538;-76
2022/10/10 08:30:48;;;;;;;9.40;8.40;;;14.50;99.90;;;;;;6071862;22;20947;-77
2022/10/10 08:33:15;;;;;;;7.93;7.13;;;14.50;99.90;;;;;;6072178;23;20447;-76
2022/10/10 08:35:42;;;;;;;8.90;8.00;;;14.80;99.90;;;;;;6082429;23;20545;-76
2022/10/10 08:38:13;;;;;;;9.60;7.77;;;15.00;99.90;;;;;;6083445;23;20439;-76
2022/10/10 08:40:47;;;;;;;8.03;7.20;;;15.10;99.90;;;;;;6075462;23;20468;-76
2022/10/10 08:43:22;;;;;;;8.50;7.60;;;15.00;99.90;;;;;;6078967;23;20449;-76
2022/10/10 08:45:52;;;;;;;9.40;7.50;;;15.40;99.90;;;;;;6066293;22;20551;-76
2022/10/10 08:48:23;;;;;;;7.50;6.80;;;15.70;99.90;;;;;;6079390;23;20478;-75
2022/10/10 08:50:55;;;;;;;7.40;6.80;;;15.90;99.90;;;;;;6078399;23;20508;-74
2022/10/10 08:53:27;;;;;;;8.27;6.80;;;16.20;99.90;;;;;;6074425;23;21104;-75
2022/10/10 08:55:55;;;;;;;8.70;6.53;;;16.80;99.90;;;;;;6058145;23;20968;-75
2022/10/10 08:58:28;;;;;;;6.00;5.40;;;17.40;99.90;;;;;;6054847;23;20467;-72
2022/10/10 09:01:04;;;;;;;7.07;6.50;;;17.90;99.90;;;;;;6052217;23;20945;-72
2022/10/10 09:03:39;;;;;;;6.77;6.17;;;18.30;99.90;;;;;;6041844;22;20499;-77
2022/10/10 09:06:46;;;;;;;7.30;5.80;;;18.30;99.90;;;;;;6020975;23;20458;-75
2022/10/10 09:09:24;;;;;;;12.23;5.97;;;18.40;99.90;;;;;;6018888;23;21218;-74
2022/10/10 09:12:00;;;;;;;7.50;5.80;;;18.50;99.90;;;;;;6014675;23;20820;-75
2022/10/10 09:16:58;;;;;;;6.37;5.77;;;18.60;99.90;;;;;;6073416;22;20480;-75
2022/10/10 09:19:38;;;;;;;6.30;5.70;;;18.70;99.90;;;;;;6082749;23;20280;-74
2022/10/10 09:22:14;;;;;;;6.80;6.20;;;19.10;99.90;;;;;;6060745;22;20477;-76
2022/10/10 09:24:48;;;;;;;8.70;5.90;;;19.60;99.90;;;;;;6079251;23;20476;-75
2022/10/10 09:27:22;;;;;;;7.73;5.53;;;20.10;99.90;;;;;;6056164;23;20465;-74
2022/10/10 09:29:53;;;;;;;8.20;5.00;;;20.50;99.90;;;;;;6077439;23;20466;-76
2022/10/10 09:32:24;;;;;;;6.10;5.50;;;20.70;99.90;;;;;;6084710;23;20521;-76
2022/10/10 09:34:54;;;;;;;5.83;5.20;;;20.70;99.90;;;;;;6050382;23;20430;-76
2022/10/10 09:40:02;;;;;;;6.57;5.23;;;20.30;99.90;;;;;;5541618;22;20472;-75
2022/10/10 09:45:00;;;;;;;6.20;5.60;;;19.80;99.90;;;;;;6030211;23;20469;-76
2022/10/10 09:47:28;;;;;;;6.83;4.97;;;19.90;99.90;;;;;;6030465;23;20427;-75
2022/10/10 09:49:56;;;;;;;5.20;4.70;;;20.00;99.90;;;;;;6028065;23;20533;-75
2022/10/10 09:52:28;;;;;;;7.33;4.77;;;20.10;99.90;;;;;;6020511;23;20479;-76
2022/10/10 09:55:01;;;;;;;5.13;4.70;;;20.50;99.90;;;;;;6009431;23;20444;-75
2022/10/10 09:57:33;;;;;;;5.33;4.83;;;20.90;99.90;;;;;;5998919;23;20461;-75
2022/10/10 10:00:25;;;;;;;5.87;4.07;;;20.90;99.90;;;;;;6024982;23;20451;-75
2022/10/10 10:03:14;;;;;;;4.70;3.83;;;20.90;99.90;;;;;;6018823;23;21023;-75
2022/10/10 10:05:45;;;;;;;4.80;4.30;;;21.10;99.90;;;;;;6022205;23;20425;-75
2022/10/10 10:08:27;;;;;;;4.40;3.90;;;21.30;99.90;;;;;;6001210;23;21028;-76
2022/10/10 10:10:57;;;;;;;5.37;4.60;;;21.10;99.90;;;;;;6033885;23;20444;-76
2022/10/10 10:13:29;;;;;;;4.50;4.20;;;20.70;99.90;;;;;;6005298;23;20943;-76
2022/10/10 10:16:01;;;;;;;5.83;4.50;;;20.50;99.90;;;;;;5984646;23;20471;-76
2022/10/10 10:18:30;;;;;;;6.20;4.77;;;20.30;99.90;;;;;;6014213;23;20438;-76
2022/10/10 10:21:25;;;;;;;5.80;5.20;;;19.90;99.90;;;;;;6008868;23;20447;-76
2022/10/10 10:23:55;;;;;;;6.50;6.00;;;19.80;99.90;;;;;;5956186;23;20522;-76
2022/10/10 10:26:27;;;;;;;5.40;4.77;;;19.70;99.90;;;;;;6024161;23;20926;-76
2022/10/10 10:28:57;;;;;;;6.97;5.80;;;19.70;99.90;;;;;;5997359;23;21122;-75
2022/10/10 10:31:44;;;;;;;5.57;4.70;;;19.70;99.90;;;;;;6019869;23;20522;-76
2022/10/10 10:34:28;;;;;;;5.20;4.53;;;19.70;99.90;;;;;;6007111;23;20437;-75
2022/10/10 10:37:03;;;;;;;5.50;4.93;;;19.80;99.90;;;;;;6006824;23;20466;-75
2022/10/10 10:39:42;;;;;;;5.67;5.20;;;19.80;99.90;;;;;;6031752;23;20461;-75
2022/10/10 10:42:26;;;;;;;5.37;4.67;;;19.80;99.90;;;;;;6009510;23;20447;-76
2022/10/10 10:45:03;;;;;;;6.23;5.47;;;19.80;99.90;;;;;;6028311;23;20520;-75
2022/10/10 10:47:43;;;;;;;7.53;5.43;;;19.70;99.90;;;;;;6023648;23;20424;-76
2022/10/10 10:50:30;;;;;;;6.73;5.30;;;19.70;99.90;;;;;;5994521;23;20465;-75
2022/10/10 10:53:04;;;;;;;6.37;5.70;;;19.70;99.90;;;;;;6004224;23;21016;-75
2022/10/10 10:55:39;;;;;;;6.80;5.60;;;19.70;99.90;;;;;;6035223;23;20439;-76
2022/10/10 10:58:45;;;;;;;7.57;5.83;;;19.60;99.90;;;;;;6022444;23;20458;-76
2022/10/10 11:01:17;;;;;;;6.07;5.17;;;19.70;99.90;;;;;;6012274;23;20454;-76
2022/10/10 11:03:55;;;;;;;6.20;5.70;;;19.90;99.90;;;;;;5995583;23;20433;-76
2022/10/10 11:06:35;;;;;;;5.10;4.70;;;20.40;99.90;;;;;;6007960;23;20527;-76
2022/10/10 11:09:13;;;;;;;5.77;4.50;;;21.10;99.90;;;;;;6028540;23;20809;-76
2022/10/10 11:12:00;;;;;;;6.07;4.90;;;22.00;99.90;;;;;;5994854;23;20438;-76
2022/10/10 11:14:46;;;;;;;4.90;4.20;;;22.80;99.90;;;;;;6041002;23;20445;-77
2022/10/10 11:17:19;;;;;;;5.03;4.40;;;23.60;99.90;;;;;;6002850;23;20753;-76
2022/10/10 11:19:55;;;;;;;4.37;3.97;;;24.20;99.90;;;;;;6023476;23;21370;-75
2022/10/10 11:22:26;;;;;;;6.73;3.73;;;24.50;99.90;;;;;;6034466;23;20444;-76
2022/10/10 11:25:00;;;;;;;4.03;3.23;;;24.90;99.90;;;;;;6026055;23;20447;-74
2022/10/10 11:27:32;;;;;;;5.20;3.30;;;25.10;99.90;;;;;;6029123;23;20424;-76
2022/10/10 11:30:07;;;;;;;4.10;3.23;;;25.30;99.90;;;;;;5998844;23;20491;-76
2022/10/10 11:32:41;;;;;;;3.60;3.20;;;25.80;99.90;;;;;;6027699;23;20483;-76
2022/10/10 11:35:28;;;;;;;5.17;3.13;;;26.10;99.90;;;;;;6003384;23;20605;-77
2022/10/10 11:38:01;;;;;;;4.03;3.63;;;26.30;99.90;;;;;;6010262;23;20463;-76
2022/10/10 11:40:47;;;;;;;5.90;3.13;;;26.30;99.90;;;;;;6026305;23;20507;-76
2022/10/10 11:43:22;;;;;;;5.33;3.57;;;26.40;99.90;;;;;;6028560;23;20456;-76
2022/10/10 11:45:59;;;;;;;6.60;3.53;;;26.10;99.90;;;;;;6031547;23;20439;-76
2022/10/10 11:48:37;;;;;;;3.40;2.93;;;26.00;99.90;;;;;;6033095;23;20489;-76
2022/10/10 11:51:17;;;;;;;3.93;3.40;;;26.00;99.90;;;;;;6004607;23;20443;-76
2022/10/10 11:53:48;;;;;;;3.80;3.10;;;26.20;99.90;;;;;;6002389;23;21145;-76
2022/10/10 11:56:21;;;;;;;5.67;2.77;;;26.30;99.90;;;;;;6031482;23;20456;-76
2022/10/10 11:58:54;;;;;;;5.87;3.43;;;26.30;99.90;;;;;;6029765;23;20463;-76
2022/10/10 12:01:28;;;;;;;4.07;3.10;;;26.50;99.90;;;;;;6001227;23;20443;-76
2022/10/10 12:03:57;;;;;;;4.53;3.10;;;26.80;99.90;;;;;;6030148;23;20523;-76
2022/10/10 12:06:30;;;;;;;3.50;3.00;;;26.90;99.90;;;;;;6003979;23;20945;-76
2022/10/10 12:09:03;;;;;;;4.93;3.00;;;26.90;99.90;;;;;;6023830;23;20448;-80
2022/10/10 12:11:35;;;;;;;7.47;3.17;;;27.00;99.90;;;;;;6008053;23;21280;-76
2022/10/10 12:14:07;;;;;;;4.70;2.90;;;27.00;99.90;;;;;;6021971;23;20444;-76
2022/10/10 12:16:37;;;;;;;6.67;3.00;;;27.00;99.90;;;;;;5992189;23;20522;-77
2022/10/10 12:19:08;;;;;;;4.53;3.33;;;27.10;99.90;;;;;;5996180;23;20468;-76
2022/10/10 12:21:56;;;;;;;4.37;2.67;;;27.30;99.90;;;;;;6017584;23;20448;-75
2022/10/10 12:24:24;;;;;;;3.07;2.50;;;27.20;99.90;;;;;;6017344;23;20448;-76
2022/10/10 12:27:25;;;;;;;5.77;3.10;;;27.00;99.90;;;;;;6019781;23;20544;-82
2022/10/10 12:30:23;;;;;;;5.47;3.07;;;27.20;99.90;;;;;;5991560;23;20448;-90
2022/10/10 12:32:53;;;;;;;3.80;2.80;;;27.30;99.50;;;;;;6017402;23;20509;-75
2022/10/10 12:35:36;;;;;;;4.63;3.13;;;27.10;99.90;;;;;;6027209;23;20432;-75
2022/10/10 12:38:11;;;;;;;4.37;2.90;;;26.90;99.90;;;;;;6012849;23;20495;-75
2022/10/10 12:41:09;;;;;;;4.63;3.23;;;26.70;99.90;;;;;;6019616;23;20450;-76
2022/10/10 12:43:44;;;;;;;5.67;3.23;;;26.50;99.90;;;;;;6019099;23;20482;-75
2022/10/10 12:46:21;;;;;;;4.50;2.73;;;26.20;99.90;;;;;;6020343;23;20921;-75
2022/10/10 12:49:12;;;;;;;9.00;3.53;;;25.90;99.90;;;;;;6021791;23;20438;-75
2022/10/10 12:51:41;;;;;;;7.80;3.43;;;25.70;99.90;;;;;;6023640;23;20515;-73
2022/10/10 12:54:23;;;;;;;4.47;2.77;;;25.60;99.90;;;;;;6020259;23;20579;-73
2022/10/10 12:56:53;;;;;;;5.70;3.10;;;25.70;99.90;;;;;;6025314;23;20490;-73
2022/10/10 12:59:24;;;;;;;6.13;3.00;;;25.70;99.90;;;;;;6007416;23;20483;-73
2022/10/10 13:01:55;;;;;;;4.40;2.70;;;25.50;99.90;;;;;;6032180;23;20468;-73
2022/10/10 13:04:24;;;;;;;5.50;2.70;;;25.40;99.90;;;;;;6033428;23;20535;-73
2022/10/10 13:06:58;;;;;;;5.70;3.20;;;25.40;99.90;;;;;;6033025;23;20445;-73
2022/10/10 13:09:27;;;;;;;4.03;2.60;;;25.60;99.90;;;;;;6033059;23;20529;-72
2022/10/10 13:12:00;;;;;;;6.17;2.47;;;25.70;99.60;;;;;;6008058;23;20494;-73
2022/10/10 13:14:38;;;;;;;5.87;2.97;;;25.80;99.90;;;;;;6023808;23;20448;-73
2022/10/10 13:17:23;;;;;;;4.10;2.60;;;26.00;99.90;;;;;;6032823;23;20875;-73
2022/10/10 13:19:51;;;;;;;3.60;2.40;;;26.20;99.90;;;;;;6032062;23;20428;-73
2022/10/10 13:22:20;;;;;;;3.20;2.53;;;26.30;98.50;;;;;;6032027;23;20812;-73
2022/10/10 13:24:48;;;;;;;3.90;2.90;;;26.40;98.50;;;;;;6033059;23;21044;-73
2022/10/10 13:27:20;;;;;;;6.70;3.50;;;26.50;98.60;;;;;;6030715;23;20444;-73